createdAt,value
2018-04-26T00:01:21.207Z,7.40
2018-04-26T00:03:48.545Z,6.17
2018-04-26T00:06:15.910Z,6.73
2018-04-26T00:08:43.256Z,6.30
2018-04-26T00:11:10.641Z,8.07
2018-04-26T00:13:38.152Z,6.87
2018-04-26T00:16:05.504Z,6.03
2018-04-26T00:18:32.870Z,7.70
2018-04-26T00:21:00.241Z,8.50
2018-04-26T00:23:27.660Z,8.13
2018-04-26T00:25:55.068Z,7.40
2018-04-26T00:28:22.470Z,7.37
2018-04-26T00:30:49.853Z,8.27
2018-04-26T00:33:17.268Z,9.10
2018-04-26T00:35:44.674Z,10.07
2018-04-26T00:38:12.077Z,8.40
2018-04-26T00:40:39.427Z,7.33
2018-04-26T00:43:06.819Z,7.93
2018-04-26T00:45:34.751Z,7.30
2018-04-26T00:48:02.219Z,9.70
2018-04-26T00:50:29.572Z,11.80
2018-04-26T00:52:57.040Z,9.40
2018-04-26T00:55:24.447Z,9.17
2018-04-26T00:57:51.840Z,11.10
2018-04-26T01:00:19.332Z,11.47
2018-04-26T01:02:46.710Z,10.10
2018-04-26T01:05:14.123Z,8.03
2018-04-26T01:07:41.304Z,8.80
2018-04-26T01:10:08.655Z,7.73
2018-04-26T01:12:36.063Z,9.07
2018-04-26T01:15:03.463Z,14.80
2018-04-26T01:17:30.838Z,9.30
2018-04-26T01:19:59.275Z,10.40
2018-04-26T01:22:26.780Z,8.47
2018-04-26T01:24:54.157Z,11.00
2018-04-26T01:27:21.566Z,11.00
2018-04-26T01:29:48.972Z,12.20
2018-04-26T01:32:16.331Z,9.30
2018-04-26T01:34:44.299Z,10.70
2018-04-26T01:37:17.637Z,7.30
2018-04-26T01:39:45.079Z,10.77
2018-04-26T01:42:12.414Z,8.53
2018-04-26T01:44:39.861Z,11.93
2018-04-26T01:47:07.255Z,9.80
2018-04-26T01:49:34.602Z,10.13
2018-04-26T01:52:01.973Z,9.67
2018-04-26T01:54:29.375Z,9.70
2018-04-26T01:56:56.757Z,13.20
2018-04-26T01:59:24.147Z,10.37
2018-04-26T02:01:51.505Z,11.87
2018-04-26T02:04:19.005Z,10.20
2018-04-26T02:06:46.388Z,12.30
2018-04-26T02:09:13.742Z,12.43
2018-04-26T02:11:41.117Z,13.60
2018-04-26T02:14:08.492Z,11.37
2018-04-26T02:16:35.897Z,12.23
2018-04-26T02:19:03.573Z,12.10
2018-04-26T02:21:31.029Z,10.87
2018-04-26T02:23:58.375Z,13.07
2018-04-26T02:26:25.803Z,13.63
2018-04-26T02:28:53.183Z,12.87
2018-04-26T02:31:20.563Z,12.57
2018-04-26T02:33:47.947Z,13.97
2018-04-26T02:36:15.293Z,14.03
2018-04-26T02:38:42.759Z,12.23
2018-04-26T02:41:10.103Z,15.10
2018-04-26T02:43:37.447Z,12.67
2018-04-26T02:46:04.856Z,11.83
2018-04-26T02:48:32.215Z,18.10
2018-04-26T02:50:59.605Z,14.30
2018-04-26T02:53:27.030Z,16.27
2018-04-26T02:55:54.432Z,14.20
2018-04-26T02:58:21.793Z,13.57
2018-04-26T03:00:49.201Z,16.93
2018-04-26T03:03:16.592Z,14.77
2018-04-26T03:05:43.931Z,12.07
2018-04-26T03:08:11.370Z,13.20
2018-04-26T03:10:38.766Z,14.03
2018-04-26T03:13:06.278Z,15.27
2018-04-26T03:15:33.652Z,12.37
2018-04-26T03:18:01.331Z,22.50
2018-04-26T03:20:28.675Z,15.60
2018-04-26T03:22:56.033Z,16.83
2018-04-26T03:25:23.435Z,18.57
2018-04-26T03:27:50.842Z,16.80
2018-04-26T03:30:18.186Z,16.23
2018-04-26T03:32:45.559Z,16.53
2018-04-26T03:35:12.966Z,15.50
2018-04-26T03:37:40.315Z,11.70
2018-04-26T03:40:07.663Z,15.17
2018-04-26T03:42:35.054Z,15.60
2018-04-26T03:45:02.402Z,17.33
2018-04-26T03:47:29.772Z,14.83
2018-04-26T03:49:57.179Z,16.50
2018-04-26T03:52:24.579Z,16.37
2018-04-26T03:54:51.927Z,17.50
2018-04-26T03:57:19.338Z,14.83
2018-04-26T03:59:52.652Z,13.67
2018-04-26T04:02:25.904Z,14.30
2018-04-26T04:04:59.296Z,18.00
2018-04-26T04:07:26.696Z,13.90
2018-04-26T04:09:54.121Z,19.73
2018-04-26T04:12:21.467Z,15.67
2018-04-26T04:14:48.853Z,17.33
2018-04-26T04:17:16.223Z,16.90
2018-04-26T04:19:43.600Z,14.40
2018-04-26T04:22:10.985Z,16.63
2018-04-26T04:24:38.335Z,12.20
2018-04-26T04:27:05.712Z,12.33
2018-04-26T04:29:33.088Z,13.43
2018-04-26T04:32:00.516Z,15.07
2018-04-26T04:34:27.860Z,17.27
2018-04-26T04:36:55.223Z,13.80
2018-04-26T04:39:22.659Z,12.90
2018-04-26T04:41:50.000Z,13.53
2018-04-26T04:44:17.403Z,15.97
2018-04-26T04:46:44.774Z,15.30
2018-04-26T04:49:12.170Z,12.90
2018-04-26T04:51:39.528Z,14.43
2018-04-26T04:54:06.907Z,13.63
2018-04-26T04:56:34.312Z,15.67
2018-04-26T04:59:01.696Z,14.50
2018-04-26T05:01:29.111Z,15.70
2018-04-26T05:03:56.490Z,16.80
2018-04-26T05:06:23.910Z,12.97
2018-04-26T05:08:51.263Z,13.67
2018-04-26T05:11:18.658Z,13.70
2018-04-26T05:13:46.081Z,17.20
2018-04-26T05:16:13.464Z,14.30
2018-04-26T05:18:40.884Z,15.03
2018-04-26T05:21:08.404Z,17.03
2018-04-26T05:23:35.861Z,17.10
2018-04-26T05:26:03.246Z,17.77
2018-04-26T05:28:30.664Z,19.00
2018-04-26T05:30:58.019Z,18.87
2018-04-26T05:33:25.404Z,18.17
2018-04-26T05:35:52.752Z,19.83
2018-04-26T05:38:20.160Z,19.40
2018-04-26T05:40:47.840Z,18.53
2018-04-26T05:43:15.211Z,20.70
2018-04-26T05:45:42.643Z,21.87
2018-04-26T05:48:09.995Z,17.90
2018-04-26T05:50:37.408Z,20.67
2018-04-26T05:53:04.805Z,20.57
2018-04-26T05:55:32.183Z,20.87
2018-04-26T05:57:59.531Z,19.53
2018-04-26T06:00:26.939Z,20.13
2018-04-26T06:02:54.324Z,22.37
2018-04-26T06:05:21.743Z,22.03
2018-04-26T06:07:49.153Z,23.60
2018-04-26T06:10:16.563Z,19.70
2018-04-26T06:12:43.971Z,16.40
2018-04-26T06:15:11.327Z,17.70
2018-04-26T06:17:38.708Z,19.20
2018-04-26T06:20:06.090Z,20.40
2018-04-26T06:22:33.486Z,20.23
2018-04-26T06:25:00.842Z,26.67
2018-04-26T06:27:28.231Z,23.20
2018-04-26T06:29:55.651Z,22.33
2018-04-26T06:32:23.033Z,24.90
2018-04-26T06:34:50.445Z,19.23
2018-04-26T06:37:17.857Z,26.87
2018-04-26T06:39:45.235Z,25.80
2018-04-26T06:42:12.682Z,26.30
2018-04-26T06:44:40.034Z,26.67
2018-04-26T06:47:07.442Z,25.87
2018-04-26T06:49:34.795Z,23.43
2018-04-26T06:52:02.152Z,26.40
2018-04-26T06:54:29.585Z,26.20
2018-04-26T06:56:56.976Z,24.47
2018-04-26T06:59:24.407Z,25.07
2018-04-26T07:01:51.820Z,30.20
2018-04-26T07:04:19.205Z,22.60
2018-04-26T07:06:46.631Z,25.90
2018-04-26T07:09:14.013Z,24.57
2018-04-26T07:11:41.458Z,27.87
2018-04-26T07:14:08.787Z,28.50
2018-04-26T07:16:36.135Z,24.30
2018-04-26T07:19:03.552Z,22.17
2018-04-26T07:21:30.937Z,24.87
2018-04-26T07:23:58.323Z,27.80
2018-04-26T07:26:25.743Z,25.50
2018-04-26T07:28:53.199Z,26.97
2018-04-26T07:31:20.592Z,29.47
2018-04-26T07:33:48.012Z,28.63
2018-04-26T07:36:15.364Z,28.73
2018-04-26T07:38:42.711Z,24.80
2018-04-26T07:41:10.097Z,24.03
2018-04-26T07:43:37.448Z,24.97
2018-04-26T07:46:05.673Z,25.40
2018-04-26T07:48:33.064Z,21.13
2018-04-26T07:51:00.491Z,21.07
2018-04-26T07:53:27.860Z,26.00
2018-04-26T07:55:55.264Z,26.27
2018-04-26T07:58:22.619Z,25.17
2018-04-26T08:00:49.994Z,27.07
2018-04-26T08:03:17.410Z,25.77
2018-04-26T08:05:44.802Z,24.67
2018-04-26T08:08:12.168Z,24.97
2018-04-26T08:10:40.466Z,27.53
2018-04-26T08:13:07.872Z,26.17
2018-04-26T08:15:35.288Z,27.07
2018-04-26T08:18:02.713Z,29.07
2018-04-26T08:20:30.108Z,25.60
2018-04-26T08:22:57.543Z,31.37
2018-04-26T08:25:24.920Z,28.80
2018-04-26T08:27:52.301Z,24.57
2018-04-26T08:30:19.686Z,30.23
2018-04-26T08:32:48.007Z,28.87
2018-04-26T08:35:15.388Z,32.33
2018-04-26T08:37:42.827Z,28.47
2018-04-26T08:40:10.211Z,24.90
2018-04-26T08:42:37.575Z,29.63
2018-04-26T08:45:04.980Z,21.00
2018-04-26T08:47:32.387Z,26.40
2018-04-26T08:49:59.834Z,25.13
2018-04-26T08:52:27.380Z,25.40
2018-04-26T08:54:54.771Z,30.63
2018-04-26T08:57:23.083Z,17.07
2018-04-26T08:59:50.550Z,23.77
2018-04-26T09:02:18.818Z,23.90
2018-04-26T09:04:46.195Z,18.63
2018-04-26T09:07:13.587Z,17.60
2018-04-26T09:09:40.974Z,18.23
2018-04-26T09:12:08.348Z,18.00
2018-04-26T09:14:35.751Z,18.33
2018-04-26T09:17:04.048Z,22.33
2018-04-26T09:19:31.484Z,21.40
2018-04-26T09:21:59.803Z,21.90
2018-04-26T09:24:27.239Z,19.23
2018-04-26T09:26:54.647Z,23.80
2018-04-26T09:29:21.999Z,12.10
2018-04-26T09:31:49.404Z,16.07
2018-04-26T09:34:16.828Z,12.23
2018-04-26T09:36:44.208Z,15.27
2018-04-26T09:39:11.616Z,14.77
2018-04-26T09:41:38.995Z,16.63
2018-04-26T09:44:06.365Z,15.33
2018-04-26T09:46:33.727Z,12.33
2018-04-26T09:49:01.108Z,12.30
2018-04-26T09:51:28.490Z,15.80
2018-04-26T09:53:55.885Z,9.67
2018-04-26T09:56:23.287Z,4.60
2018-04-26T09:58:50.744Z,7.80
2018-04-26T10:01:19.825Z,6.20
2018-04-26T10:03:47.215Z,6.30
2018-04-26T10:06:31.167Z,6.07
2018-04-26T10:08:59.502Z,4.60
2018-04-26T10:11:26.990Z,4.23
2018-04-26T10:13:54.404Z,5.40
2018-04-26T10:16:21.827Z,5.40
2018-04-26T10:18:49.199Z,5.60
2018-04-26T10:21:16.672Z,8.43
2018-04-26T10:23:44.108Z,7.00
2018-04-26T10:26:11.467Z,6.97
2018-04-26T10:28:38.848Z,5.23
2018-04-26T10:31:06.223Z,5.77
2018-04-26T10:33:33.619Z,5.63
2018-04-26T10:36:01.070Z,3.20
2018-04-26T10:38:28.442Z,6.90
2018-04-26T10:40:55.774Z,4.03
2018-04-26T10:43:23.184Z,3.00
2018-04-26T10:45:50.587Z,3.77
2018-04-26T10:48:17.931Z,4.17
2018-04-26T10:50:45.360Z,5.23
2018-04-26T10:53:12.762Z,3.47
2018-04-26T10:55:40.097Z,6.70
2018-04-26T10:58:07.487Z,3.53
2018-04-26T11:00:34.964Z,9.70
2018-04-26T11:03:02.338Z,3.37
2018-04-26T11:05:29.686Z,2.93
2018-04-26T11:07:57.071Z,3.00
2018-04-26T11:10:24.431Z,3.93
2018-04-26T11:12:51.774Z,2.83
2018-04-26T11:15:19.168Z,3.43
2018-04-26T11:17:46.558Z,2.87
2018-04-26T11:20:13.931Z,3.53
2018-04-26T11:22:41.278Z,3.03
2018-04-26T11:25:08.609Z,4.97
2018-04-26T11:27:37.036Z,4.50
2018-04-26T11:30:04.468Z,5.60
2018-04-26T11:32:31.844Z,4.40
2018-04-26T11:34:59.220Z,3.47
2018-04-26T11:37:26.649Z,4.90
2018-04-26T11:39:53.990Z,4.20
2018-04-26T11:42:21.336Z,2.80
2018-04-26T11:44:50.227Z,4.33
2018-04-26T11:47:18.592Z,4.10
2018-04-26T11:49:47.484Z,4.03
2018-04-26T11:52:15.066Z,3.30
2018-04-26T11:54:42.413Z,5.40
2018-04-26T11:57:09.775Z,4.00
2018-04-26T11:59:37.240Z,4.50
2018-04-26T12:02:04.586Z,5.17
2018-04-26T12:04:31.919Z,5.33
2018-04-26T12:06:59.399Z,4.83
2018-04-26T12:09:26.815Z,5.67
2018-04-26T12:11:54.184Z,3.77
2018-04-26T12:14:21.646Z,4.93
2018-04-26T12:16:49.040Z,3.60
2018-04-26T12:19:16.472Z,4.80
2018-04-26T12:21:43.896Z,4.07
2018-04-26T12:24:11.238Z,3.50
2018-04-26T12:26:38.599Z,3.13
2018-04-26T12:29:05.995Z,5.17
2018-04-26T12:31:33.334Z,2.90
2018-04-26T12:34:00.738Z,3.30
2018-04-26T12:36:28.128Z,2.80
2018-04-26T12:38:55.556Z,2.90
2018-04-26T12:41:22.930Z,2.50
2018-04-26T12:43:50.302Z,4.20
2018-04-26T12:46:17.646Z,2.40
2018-04-26T12:48:45.935Z,3.10
2018-04-26T12:51:13.356Z,4.50
2018-04-26T12:53:40.731Z,2.50
2018-04-26T12:56:08.093Z,3.13
2018-04-26T12:58:35.459Z,2.60
2018-04-26T13:01:02.835Z,4.50
2018-04-26T13:03:30.209Z,3.77
2018-04-26T13:05:57.615Z,3.43
2018-04-26T13:08:25.892Z,4.83
2018-04-26T13:10:54.187Z,3.90
2018-04-26T13:13:21.592Z,3.77
2018-04-26T13:15:48.989Z,3.73
2018-04-26T13:18:16.409Z,3.63
2018-04-26T13:20:43.854Z,3.30
2018-04-26T13:23:11.292Z,4.00
2018-04-26T13:25:38.715Z,4.67
2018-04-26T13:28:06.083Z,3.10
2018-04-26T13:30:33.417Z,6.00
2018-04-26T13:33:01.720Z,5.30
2018-04-26T13:35:29.103Z,4.23
2018-04-26T13:37:56.462Z,4.83
2018-04-26T13:40:23.811Z,5.80
2018-04-26T13:42:51.227Z,4.70
2018-04-26T13:45:18.708Z,4.73
2018-04-26T13:47:46.141Z,4.00
2018-04-26T13:50:13.485Z,5.40
2018-04-26T13:52:41.130Z,5.00
2018-04-26T13:55:08.483Z,4.70
2018-04-26T13:57:35.875Z,3.80
2018-04-26T14:00:03.239Z,4.00
2018-04-26T14:02:30.691Z,3.30
2018-04-26T14:04:58.092Z,3.80
2018-04-26T14:07:25.493Z,3.97
2018-04-26T14:09:53.746Z,3.80
2018-04-26T14:12:21.136Z,2.77
2018-04-26T14:14:48.507Z,3.13
2018-04-26T14:17:15.871Z,2.40
2018-04-26T14:19:43.283Z,3.33
2018-04-26T14:22:10.658Z,2.33
2018-04-26T14:24:38.064Z,3.33
2018-04-26T14:27:05.472Z,6.90
2018-04-26T14:29:32.934Z,2.43
2018-04-26T14:32:00.392Z,3.10
2018-04-26T14:34:27.769Z,2.10
2018-04-26T14:36:55.125Z,2.20
2018-04-26T14:39:22.531Z,2.40
2018-04-26T14:41:49.919Z,2.47
2018-04-26T14:44:17.372Z,2.43
2018-04-26T14:46:44.783Z,2.10
2018-04-26T14:49:12.171Z,2.10
2018-04-26T14:51:39.505Z,2.27
2018-04-26T14:54:06.920Z,2.30
2018-04-26T14:56:34.275Z,2.97
2018-04-26T14:59:01.640Z,2.93
2018-04-26T15:01:29.023Z,2.33
2018-04-26T15:03:56.439Z,2.20
2018-04-26T15:06:23.819Z,2.87
2018-04-26T15:08:51.355Z,2.10
2018-04-26T15:11:18.690Z,3.80
2018-04-26T15:13:46.159Z,4.37
2018-04-26T15:16:13.540Z,2.40
2018-04-26T15:18:40.918Z,3.20
2018-04-26T15:21:09.227Z,3.40
2018-04-26T15:23:36.644Z,4.80
2018-04-26T15:26:04.051Z,4.90
2018-04-26T15:28:31.420Z,3.90
2018-04-26T15:30:58.884Z,3.67
2018-04-26T15:33:26.303Z,4.57
2018-04-26T15:35:53.712Z,3.73
2018-04-26T15:38:21.087Z,4.80
2018-04-26T15:40:48.464Z,5.93
2018-04-26T15:43:15.876Z,5.83
2018-04-26T15:45:43.247Z,7.67
2018-04-26T15:48:10.671Z,5.40
2018-04-26T15:50:52.952Z,4.03
2018-04-26T15:53:26.318Z,4.83
2018-04-26T15:55:59.758Z,5.50
2018-04-26T15:58:27.132Z,4.17
2018-04-26T16:01:06.375Z,3.33
2018-04-26T16:03:40.531Z,3.80
2018-04-26T16:06:25.771Z,3.03
2018-04-26T16:09:08.050Z,4.37
2018-04-26T16:11:41.356Z,3.60
2018-04-26T16:14:33.468Z,4.50
2018-04-26T16:17:26.266Z,3.93
2018-04-26T16:20:05.449Z,3.10
2018-04-26T16:22:44.537Z,2.80
2018-04-26T16:25:29.949Z,3.00
2018-04-26T16:27:59.170Z,3.63
2018-04-26T16:30:32.453Z,3.10
2018-04-26T16:33:05.867Z,4.63
2018-04-26T16:35:39.211Z,2.93
2018-04-26T16:38:14.383Z,5.73
2018-04-26T16:40:41.799Z,3.20
2018-04-26T16:43:09.191Z,6.20
2018-04-26T16:45:36.558Z,3.33
2018-04-26T16:48:03.899Z,2.90
2018-04-26T16:50:31.276Z,3.33
2018-04-26T16:52:58.735Z,3.00
2018-04-26T16:55:26.147Z,3.80
2018-04-26T16:57:53.567Z,3.93
2018-04-26T17:00:20.988Z,4.17
2018-04-26T17:02:48.436Z,3.53
2018-04-26T17:05:15.807Z,4.90
2018-04-26T17:07:43.200Z,3.77
2018-04-26T17:10:11.467Z,3.33
2018-04-26T17:12:38.940Z,4.17
2018-04-26T17:15:06.367Z,3.73
2018-04-26T17:17:33.772Z,5.43
2018-04-26T17:20:01.158Z,4.30
2018-04-26T17:22:28.641Z,4.67
2018-04-26T17:24:56.061Z,4.00
2018-04-26T17:27:23.415Z,3.40
2018-04-26T17:29:50.836Z,4.23
2018-04-26T17:32:18.246Z,3.17
2018-04-26T17:34:45.713Z,6.97
2018-04-26T17:37:13.104Z,4.30
2018-04-26T17:39:40.490Z,5.87
2018-04-26T17:42:07.895Z,3.10
2018-04-26T17:44:35.270Z,3.33
2018-04-26T17:47:02.679Z,6.00
2018-04-26T17:49:30.037Z,7.10
2018-04-26T17:51:57.445Z,4.50
2018-04-26T17:54:24.820Z,4.00
2018-04-26T17:56:52.173Z,5.80
2018-04-26T17:59:19.548Z,7.13
2018-04-26T18:01:46.887Z,6.90
2018-04-26T18:04:14.254Z,4.87
2018-04-26T18:06:41.590Z,6.00
2018-04-26T18:09:08.962Z,6.50
2018-04-26T18:11:36.592Z,7.07
2018-04-26T18:14:03.985Z,7.15
2018-04-26T18:16:31.323Z,7.83
2018-04-26T18:18:58.694Z,7.83
2018-04-26T18:21:26.091Z,7.17
2018-04-26T18:23:53.476Z,5.80
2018-04-26T18:26:20.884Z,9.63
2018-04-26T18:28:48.298Z,6.37
2018-04-26T18:31:15.655Z,10.47
2018-04-26T18:33:46.804Z,7.73
2018-04-26T18:36:14.236Z,7.87
2018-04-26T18:38:41.577Z,5.60
2018-04-26T18:41:09.142Z,6.10
2018-04-26T18:43:36.547Z,5.00
2018-04-26T18:46:03.896Z,5.07
2018-04-26T18:48:31.404Z,7.90
2018-04-26T18:50:58.872Z,6.43
2018-04-26T18:53:26.244Z,6.03
2018-04-26T18:55:53.613Z,7.93
2018-04-26T18:58:21.006Z,5.40
2018-04-26T19:00:48.376Z,5.93
2018-04-26T19:03:15.747Z,9.00
2018-04-26T19:05:43.095Z,7.40
2018-04-26T19:08:10.497Z,8.87
2018-04-26T19:10:37.907Z,6.80
2018-04-26T19:13:05.393Z,7.63
2018-04-26T19:15:32.742Z,7.03
2018-04-26T19:18:00.124Z,8.70
2018-04-26T19:20:27.478Z,7.57
2018-04-26T19:22:54.868Z,5.87
2018-04-26T19:25:22.433Z,6.10
2018-04-26T19:27:49.856Z,6.17
2018-04-26T19:30:17.255Z,7.33
2018-04-26T19:32:44.640Z,5.73
2018-04-26T19:35:12.014Z,7.13
2018-04-26T19:37:39.390Z,6.07
2018-04-26T19:40:06.869Z,7.93
2018-04-26T19:42:34.242Z,9.27
2018-04-26T19:45:01.616Z,7.03
2018-04-26T19:47:29.004Z,5.60
2018-04-26T19:49:56.430Z,6.43
2018-04-26T19:52:23.864Z,5.37
2018-04-26T19:54:51.239Z,4.40
2018-04-26T19:57:18.672Z,6.33
2018-04-26T19:59:46.051Z,5.70
2018-04-26T20:02:13.479Z,5.10
2018-04-26T20:04:40.944Z,5.20
2018-04-26T20:07:08.311Z,8.17
2018-04-26T20:09:35.782Z,8.87
2018-04-26T20:12:03.127Z,7.73
2018-04-26T20:14:30.458Z,8.00
2018-04-26T20:16:57.944Z,8.63
2018-04-26T20:19:25.291Z,7.70
2018-04-26T20:21:52.639Z,7.40
2018-04-26T20:24:20.063Z,8.00
2018-04-26T20:26:47.523Z,6.13
2018-04-26T20:29:14.932Z,7.80
2018-04-26T20:31:42.350Z,6.53
2018-04-26T20:34:09.805Z,9.67
2018-04-26T20:36:37.180Z,5.33
2018-04-26T20:39:04.579Z,6.10
2018-04-26T20:41:37.886Z,5.60
2018-04-26T20:44:05.299Z,7.13
2018-04-26T20:46:32.639Z,5.97
2018-04-26T20:49:00.014Z,8.70
2018-04-26T20:51:27.394Z,7.73
2018-04-26T20:53:54.806Z,7.87
2018-04-26T20:56:22.292Z,7.27
2018-04-26T20:58:49.615Z,7.80
2018-04-26T21:01:17.020Z,9.70
2018-04-26T21:03:44.412Z,8.23
2018-04-26T21:06:11.827Z,6.30
2018-04-26T21:08:39.337Z,6.13
2018-04-26T21:11:06.894Z,6.70
2018-04-26T21:13:34.389Z,6.20
2018-04-26T21:16:01.911Z,6.47
2018-04-26T21:18:29.334Z,7.70
2018-04-26T21:20:56.703Z,5.57
2018-04-26T21:23:24.282Z,5.80
2018-04-26T21:25:51.660Z,6.67
2018-04-26T21:28:19.136Z,5.63
2018-04-26T21:30:46.653Z,7.97
2018-04-26T21:33:14.212Z,10.60
2018-04-26T21:35:41.745Z,9.33
2018-04-26T21:38:09.129Z,10.43
2018-04-26T21:40:36.687Z,6.07
2018-04-26T21:43:04.128Z,12.30
2018-04-26T21:45:31.640Z,7.70
2018-04-26T21:47:59.066Z,5.60
2018-04-26T21:50:32.458Z,7.70
2018-04-26T21:53:05.685Z,7.70
2018-04-26T21:55:38.838Z,8.07
2018-04-26T21:58:12.008Z,7.80
2018-04-26T22:00:45.156Z,9.60
2018-04-26T22:03:12.592Z,10.23
2018-04-26T22:05:41.702Z,10.90
2018-04-26T22:08:09.164Z,7.73
2018-04-26T22:10:36.620Z,8.43
2018-04-26T22:13:04.145Z,7.93
2018-04-26T22:15:31.592Z,6.93
2018-04-26T22:17:59.100Z,9.77
2018-04-26T22:20:27.540Z,8.90
2018-04-26T22:22:54.919Z,7.10
2018-04-26T22:25:22.324Z,9.80
2018-04-26T22:27:49.749Z,8.30
2018-04-26T22:30:17.371Z,6.60
2018-04-26T22:32:44.758Z,9.20
2018-04-26T22:35:12.184Z,7.00
2018-04-26T22:37:39.620Z,9.93
2018-04-26T22:40:06.993Z,8.73
2018-04-26T22:42:34.409Z,7.47
2018-04-26T22:45:01.774Z,9.00
2018-04-26T22:47:29.260Z,10.70
2018-04-26T22:49:56.685Z,12.03
2018-04-26T22:52:24.174Z,7.67
2018-04-26T22:54:51.667Z,10.70
2018-04-26T22:57:19.092Z,10.63
2018-04-26T22:59:46.519Z,10.23
2018-04-26T23:02:14.104Z,13.27
2018-04-26T23:04:41.665Z,10.97
2018-04-26T23:07:09.225Z,15.27
2018-04-26T23:09:36.709Z,13.67
2018-04-26T23:12:04.083Z,10.90
2018-04-26T23:14:31.697Z,9.57
2018-04-26T23:16:59.193Z,11.50
2018-04-26T23:19:26.604Z,15.53
2018-04-26T23:21:54.068Z,8.83
2018-04-26T23:24:21.629Z,13.80
2018-04-26T23:26:49.033Z,11.50
2018-04-26T23:29:16.545Z,11.10
2018-04-26T23:31:44.102Z,8.60
2018-04-26T23:34:11.670Z,15.13
2018-04-26T23:36:39.220Z,10.40
2018-04-26T23:39:06.711Z,10.03
2018-04-26T23:41:34.132Z,12.20
2018-04-26T23:44:01.628Z,8.73
2018-04-26T23:46:29.157Z,12.33
2018-04-26T23:48:57.464Z,8.80
2018-04-26T23:51:24.872Z,12.00
2018-04-26T23:53:52.445Z,10.30
2018-04-26T23:56:19.880Z,11.10
2018-04-26T23:58:47.259Z,11.27
